Ryouei Maru — JL6703 — position and weather

sailwx.info

Track history (hours):
 
Tides and Currents Weather Stations Pressure Air Temp Water Temp Dewpoint Dewpoint Depression Visibility Wind Speed Wind Dir Waves Ship Positions

Ryouei Maru

Last reported at 2014-Dec-21 14:33 UTC. Time now 2014-Dec-23 00:52 UTC.
Position N 33°56' E 134°60'.

Length 95 m; draft 5 m.

Type: Cargo ship. MMSI: 431501749.

Date/timePositionNaut miles runAvg speedWind from/ knotsBaromVisibWave heightAir tempDewpointWater temp
2014-Dec-21 14:33N 33°56' E 134°60'1414.1
2014-Dec-21 13:33N 34°10' E 134°59'1313.0
2014-Dec-21 12:33N 34°23' E 135°01'1313.3
2014-Dec-21 11:33N 34°32' E 135°14'1111.2
2014-Dec-21 10:33N 34°37' E 135°26'0 0.3
2014-Dec-21 09:30N 34°37' E 135°26'0 0.0
2014-Dec-21 08:30N 34°37' E 135°26'0 0.0
2014-Dec-21 07:30N 34°37' E 135°26'0 0.0
2014-Dec-21 06:30N 34°37' E 135°26'0 0.0
2014-Dec-21 05:18N 34°37' E 135°26'0 0.1
2014-Dec-21 04:24N 34°37' E 135°26'0 0.0
2014-Dec-21 02:18N 34°37' E 135°26'0 0.0
2014-Dec-21 01:12N 34°37' E 135°26'0 0.1
2014-Dec-21 00:30N 34°37' E 135°26'0 0.0
2014-Dec-20 23:30N 34°37' E 135°26'0 0.1
2014-Dec-20 22:31N 34°37' E 135°26'6 6.5
2014-Dec-20 21:33N 34°35' E 135°18'1 0.7
2014-Dec-20 20:31N 34°35' E 135°18'9 9.1
2014-Dec-20 19:33N 34°28' E 135°11'1412.9
2014-Dec-20 18:30N 34°18' E 134°60'1111.8
2014-Dec-20 17:31N 34°06' E 135°00'  
2014-Dec-12 12:33N 34°06' E 134°59'1513.8
2014-Dec-12 11:27N 34°21' E 134°60'1112.5
2014-Dec-12 10:33N 34°28' E 135°10'1212.2
2014-Dec-12 09:33N 34°37' E 135°21'4 3.5
2014-Dec-12 08:23N 34°37' E 135°26'0 0.0
2014-Dec-12 07:23N 34°37' E 135°26'0 0.0
2014-Dec-12 06:17N 34°37' E 135°26'0 0.0
2014-Dec-12 04:29N 34°37' E 135°26'0 0.0
2014-Dec-12 03:05N 34°37' E 135°26'0 0.1
2014-Dec-12 02:18N 34°37' E 135°26'0 0.0
2014-Dec-12 01:18N 34°37' E 135°26'0 0.0
2014-Dec-11 23:24N 34°37' E 135°26'0 0.1
2014-Dec-11 22:32N 34°37' E 135°26'7 6.6
2014-Dec-11 21:33N 34°35' E 135°18'0 0.1
2014-Dec-11 20:29N 34°35' E 135°18'0 0.0
2014-Dec-11 19:23N 34°35' E 135°18'0 0.0
2014-Dec-11 18:23N 34°35' E 135°18'5 6.0
2014-Dec-11 17:33N 34°31' E 135°14'1312.4
2014-Dec-11 16:32N 34°22' E 135°04'1111.4
2014-Dec-11 15:33N 34°11' E 135°00'1212.1
2014-Dec-11 14:33N 33°59' E 135°01'  
Track history (hours):
 
Tides and Currents Weather Stations Pressure Air Temp Water Temp Dewpoint Dewpoint Depression Visibility Wind Speed Wind Dir Waves Ship Positions

Ryouei Maru

Last reported at 2014-Dec-21 14:33 UTC. Time now 2014-Dec-23 00:52 UTC.
Position N 33°56' E 134°60'.

Length 95 m; draft 5 m.

Type: Cargo ship. MMSI: 431501749.

Date/timePositionNaut miles runAvg speedWind from/ knotsBaromVisibWave heightAir tempDewpointWater temp
2014-Dec-21 14:33N 33°56' E 134°60'1414.1
2014-Dec-21 13:33N 34°10' E 134°59'1313.0
2014-Dec-21 12:33N 34°23' E 135°01'1313.3
2014-Dec-21 11:33N 34°32' E 135°14'1111.2
2014-Dec-21 10:33N 34°37' E 135°26'0 0.3
2014-Dec-21 09:30N 34°37' E 135°26'0 0.0
2014-Dec-21 08:30N 34°37' E 135°26'0 0.0
2014-Dec-21 07:30N 34°37' E 135°26'0 0.0
2014-Dec-21 06:30N 34°37' E 135°26'0 0.0
2014-Dec-21 05:18N 34°37' E 135°26'0 0.1
2014-Dec-21 04:24N 34°37' E 135°26'0 0.0
2014-Dec-21 02:18N 34°37' E 135°26'0 0.0
2014-Dec-21 01:12N 34°37' E 135°26'0 0.1
2014-Dec-21 00:30N 34°37' E 135°26'0 0.0
2014-Dec-20 23:30N 34°37' E 135°26'0 0.1
2014-Dec-20 22:31N 34°37' E 135°26'6 6.5
2014-Dec-20 21:33N 34°35' E 135°18'1 0.7
2014-Dec-20 20:31N 34°35' E 135°18'9 9.1
2014-Dec-20 19:33N 34°28' E 135°11'1412.9
2014-Dec-20 18:30N 34°18' E 134°60'1111.8
2014-Dec-20 17:31N 34°06' E 135°00'  
2014-Dec-12 12:33N 34°06' E 134°59'1513.8
2014-Dec-12 11:27N 34°21' E 134°60'1112.5
2014-Dec-12 10:33N 34°28' E 135°10'1212.2
2014-Dec-12 09:33N 34°37' E 135°21'4 3.5
2014-Dec-12 08:23N 34°37' E 135°26'0 0.0
2014-Dec-12 07:23N 34°37' E 135°26'0 0.0
2014-Dec-12 06:17N 34°37' E 135°26'0 0.0
2014-Dec-12 04:29N 34°37' E 135°26'0 0.0
2014-Dec-12 03:05N 34°37' E 135°26'0 0.1
2014-Dec-12 02:18N 34°37' E 135°26'0 0.0
2014-Dec-12 01:18N 34°37' E 135°26'0 0.0
2014-Dec-11 23:24N 34°37' E 135°26'0 0.1
2014-Dec-11 22:32N 34°37' E 135°26'7 6.6
2014-Dec-11 21:33N 34°35' E 135°18'0 0.1
2014-Dec-11 20:29N 34°35' E 135°18'0 0.0
2014-Dec-11 19:23N 34°35' E 135°18'0 0.0
2014-Dec-11 18:23N 34°35' E 135°18'5 6.0
2014-Dec-11 17:33N 34°31' E 135°14'1312.4
2014-Dec-11 16:32N 34°22' E 135°04'1111.4
2014-Dec-11 15:33N 34°11' E 135°00'1212.1
2014-Dec-11 14:33N 33°59' E 135°01'  

Dump ship's entire track history